Flight Track Log - Related Links

Times and Time Zones

All times are in EDT time to prevent confusion due to time zone crossing. See the SKW5550 flight status page for this flight to view local times or setup timezone preferences in your user account.

Time Position Orientation Groundspeed Altitude Reporting Facility
EDT Latitude Longitude Course Direction KTS MPH feet Rate Location/Type
Tue 09:46:44 44.5442 -108.9900 144° Southeast 188 216 6,400  Level Salt Lake Center
Tue 09:47:00 44.0956 -108.5925 157° South  Level Estimated
Tue 09:47:45 44.5967 -108.9689 16° North 197 227 8,600  Level Salt Lake Center
Tue 09:48:00 43.9817 -108.5396 162° South  Level FlightAware Approximate
Tue 09:48:46 44.6375 -108.9200 40° Northeast 221 254 11,200  Level Salt Lake Center
Tue 09:49:00 43.8848 -108.4411 156° South  Level Estimated
Tue 09:49:47 44.5778 -108.8828 156° South 247 284 13,500  Level Salt Lake Center
Tue 09:50:00 43.7879 -108.3430 142° Southeast  Level Estimated
Tue 09:50:49 44.4942 -108.8856 181° South 287 330 14,700  Level Salt Lake Center
Tue 09:51:00 43.6750 -108.2864 160° South  Level FlightAware Approximate
Tue 09:51:50 44.3969 -108.8369 160° South 358 412 16,300  Level Salt Lake Center
Tue 09:52:00 43.5784 -108.1879 144° Southeast  Level Estimated
Tue 09:52:51 44.3000 -108.7800 157° South 374 430 18,000  Level Salt Lake Center
Tue 09:53:52 44.1994 -108.7225 158° South 386 444 19,800 1,610 Climbing Salt Lake Center
Tue 09:54:54 44.0972 -108.6639 158° South 396 456 21,300 1,561 Climbing Salt Lake Center
Tue 09:55:55 43.9725 -108.5931 158° South 404 465 23,000 1,574 Climbing Salt Lake Center
Tue 09:56:56 43.8661 -108.5317 157° South 415 478 24,500 1,328 Climbing Salt Lake Center
Tue 09:57:57 43.7597 -108.4689 157° South 417 480 25,700 1,122 Climbing Salt Lake Center
Tue 09:58:59 43.6506 -108.4092 158° South 422 486 26,800 1,024 Climbing Salt Lake Center
Tue 10:00:00 43.5411 -108.3486 158° South 425 489 27,800 934 Climbing Salt Lake Center
Tue 10:01:01 43.4322 -108.2756 154° Southeast 436 502 28,700 787 Climbing Salt Lake Center
Tue 10:02:02 43.3372 -108.1678 140° Southeast 443 510 29,400 732 Climbing Salt Lake Center
Tue 10:03:04 43.2375 -108.0636 143° Southeast 451 519 30,200 780 Climbing Salt Lake Center
Tue 10:04:05 43.1389 -107.9592 142° Southeast 451 519 31,000 393 Climbing Salt Lake Center
Tue 10:05:06 43.0197 -107.8322 142° Southeast 454 522 31,000  Level Salt Lake Center
Tue 10:06:08 42.9267 -107.7356 143° Southeast 450 518 31,000  Level Salt Lake Center
Tue 10:07:09 42.8150 -107.6189 143° Southeast 452 520 31,000  Level Salt Lake Center
Tue 10:08:10 42.7189 -107.5186 143° Southeast 454 522 31,000  Level Salt Lake Center
Tue 10:09:12 42.6233 -107.4189 142° Southeast 453 521 31,000  Level Salt Lake Center
Tue 10:10:13 42.5092 -107.3033 143° Southeast 456 525 31,000  Level Salt Lake Center
Tue 10:11:14 42.4108 -107.2044 143° Southeast 459 528 31,000  Level Salt Lake Center
Tue 10:11:45 42.3628 -107.1556 143° Southeast 457 526 31,000  Level Denver Center
Tue 10:12:47 42.2497 -107.0431 144° Southeast 451 519 31,000  Level Denver Center
Tue 10:13:48 42.1519 -106.9444 143° Southeast 456 525 31,000  Level Denver Center
Tue 10:14:50 42.0383 -106.8306 143° Southeast 457 526 31,000  Level Denver Center
Tue 10:15:51 41.9408 -106.7344 144° Southeast 455 524 31,000  Level Denver Center
Tue 10:16:53 41.8433 -106.6378 144° Southeast 455 524 31,000  Level Denver Center
Tue 10:17:55 41.7303 -106.5267 144° Southeast 452 520 31,000  Level Denver Center
Tue 10:18:56 41.6325 -106.4322 144° Southeast 453 521 31,000  Level Denver Center
Tue 10:19:58 41.5208 -106.3211 143° Southeast 450 518 31,000 -390 Level Denver Center
Tue 10:20:59 41.4228 -106.2267 144° Southeast 453 521 30,200 -878 Descending Denver Center
Tue 10:22:01 41.3189 -106.1281 145° Southeast 467 537 29,200 -1,016 Descending Denver Center
Tue 10:23:03 41.1950 -106.0047 143° Southeast 494 568 28,100 -1,024 Descending Denver Center
Tue 10:24:04 41.0883 -105.9036 144° Southeast 496 571 27,100 -537 Descending Denver Center
Tue 10:25:06 40.9706 -105.7917 144° Southeast 501 577 27,000 -919 Descending Denver Center
Tue 10:26:08 40.8569 -105.6831 144° Southeast 504 580 25,200 -1,984 Descending Denver Center
Tue 10:27:10 40.7447 -105.5747 144° Southeast 501 577 22,900 -2,537 Descending Denver Center
Tue 10:28:11 40.6117 -105.4481 144° Southeast 495 570 20,000 -1,902 Descending Denver Center
Tue 10:29:13 40.5364 -105.3164 127° Southeast 453 521 19,000 -968 Descending Denver Center
Tue 10:30:15 40.4831 -105.2025 122° Southeast 375 432 18,000 -1,210 Descending Denver Center
Tue 10:31:17 40.4472 -105.0750 110° East 368 423 16,500 -1,839 Descending Denver Center
Tue 10:32:19 40.4108 -104.9503 111° Southeast 345 397 14,200 -1,463 Descending Denver Center
Tue 10:33:20 40.3817 -104.8450 110° East 314 361 13,500 -585 Descending Denver Center
Tue 10:34:22 40.3342 -104.7583 126° Southeast 296 341 13,000 -581 Descending Denver Center
Tue 10:35:24 40.2597 -104.7103 154° Southeast 298 343 12,300 -484 Descending Denver Center
Tue 10:36:26 40.1814 -104.6836 165° South 298 343 12,000 -339 Descending Denver Center
Tue 10:37:28 40.1081 -104.6847 181° South 246 283 11,600 -1,161 Descending Denver Center
Tue 10:38:30 40.0450 -104.6858 181° South 229 264 9,600 -2,032 Descending Denver Center
Tue 10:39:32 39.9836 -104.6850 179° South 207 238 7,400 -1,645 Descending Denver Center
Tue 10:40:34 39.9378 -104.6864 181° South 164 189 6,200 -919 Descending Denver Center
Tue 10:41:36 39.8989 -104.6867 180° South 142 163 5,500 -677 Descending Denver Center

Login

Don't have an account? Register now (free) for customized features, flight alerts, and more!